sensor_id;sensor_type;location;lat;lon;timestamp;temperature;humidity
13458;DHT22;6801;53.018;11.560;2023-04-10T00:01:31;8.30;68.80
13458;DHT22;6801;53.018;11.560;2023-04-10T00:04:00;8.30;68.80
13458;DHT22;6801;53.018;11.560;2023-04-10T00:06:28;8.30;69.10
13458;DHT22;6801;53.018;11.560;2023-04-10T00:08:56;8.20;69.30
13458;DHT22;6801;53.018;11.560;2023-04-10T00:11:23;8.20;69.40
13458;DHT22;6801;53.018;11.560;2023-04-10T00:13:50;8.10;69.50
13458;DHT22;6801;53.018;11.560;2023-04-10T00:16:17;8.10;69.50
13458;DHT22;6801;53.018;11.560;2023-04-10T00:18:44;8.10;69.60
13458;DHT22;6801;53.018;11.560;2023-04-10T00:21:11;8.10;69.70
13458;DHT22;6801;53.018;11.560;2023-04-10T00:23:39;8.00;69.80
13458;DHT22;6801;53.018;11.560;2023-04-10T00:26:06;8.00;69.90
13458;DHT22;6801;53.018;11.560;2023-04-10T00:28:33;8.00;69.90
13458;DHT22;6801;53.018;11.560;2023-04-10T00:31:02;8.00;70.00
13458;DHT22;6801;53.018;11.560;2023-04-10T00:33:29;8.00;70.20
13458;DHT22;6801;53.018;11.560;2023-04-10T00:35:56;8.00;70.40
13458;DHT22;6801;53.018;11.560;2023-04-10T00:38:23;8.00;70.60
13458;DHT22;6801;53.018;11.560;2023-04-10T00:40:52;8.00;70.70
13458;DHT22;6801;53.018;11.560;2023-04-10T00:43:19;8.00;70.60
13458;DHT22;6801;53.018;11.560;2023-04-10T00:45:46;7.90;70.50
13458;DHT22;6801;53.018;11.560;2023-04-10T00:48:14;7.90;70.50
13458;DHT22;6801;53.018;11.560;2023-04-10T00:50:42;7.90;70.60
13458;DHT22;6801;53.018;11.560;2023-04-10T00:53:09;7.80;70.70
13458;DHT22;6801;53.018;11.560;2023-04-10T00:55:36;7.80;70.80
13458;DHT22;6801;53.018;11.560;2023-04-10T00:58:05;7.70;70.80
13458;DHT22;6801;53.018;11.560;2023-04-10T01:00:32;7.80;71.00
13458;DHT22;6801;53.018;11.560;2023-04-10T01:02:59;7.70;71.00
13458;DHT22;6801;53.018;11.560;2023-04-10T01:05:31;7.80;71.10
13458;DHT22;6801;53.018;11.560;2023-04-10T01:08:07;7.70;71.10
13458;DHT22;6801;53.018;11.560;2023-04-10T01:10:42;7.70;71.20
13458;DHT22;6801;53.018;11.560;2023-04-10T01:13:21;7.70;71.20
13458;DHT22;6801;53.018;11.560;2023-04-10T01:15:53;7.70;71.30
13458;DHT22;6801;53.018;11.560;2023-04-10T01:18:28;7.60;71.40
13458;DHT22;6801;53.018;11.560;2023-04-10T01:20:58;7.60;71.40
13458;DHT22;6801;53.018;11.560;2023-04-10T01:23:41;7.60;71.30
13458;DHT22;6801;53.018;11.560;2023-04-10T01:26:14;7.60;71.40
13458;DHT22;6801;53.018;11.560;2023-04-10T01:28:52;7.50;71.50
13458;DHT22;6801;53.018;11.560;2023-04-10T01:31:28;7.50;71.70
13458;DHT22;6801;53.018;11.560;2023-04-10T01:34:00;7.50;71.80
13458;DHT22;6801;53.018;11.560;2023-04-10T01:36:33;7.60;71.90
13458;DHT22;6801;53.018;11.560;2023-04-10T01:39:03;7.50;71.90
13458;DHT22;6801;53.018;11.560;2023-04-10T01:41:32;7.50;72.00
13458;DHT22;6801;53.018;11.560;2023-04-10T01:44:03;7.50;72.00
13458;DHT22;6801;53.018;11.560;2023-04-10T01:46:32;7.50;72.20
13458;DHT22;6801;53.018;11.560;2023-04-10T01:49:00;7.50;72.20
13458;DHT22;6801;53.018;11.560;2023-04-10T01:51:30;7.50;72.10
13458;DHT22;6801;53.018;11.560;2023-04-10T01:54:00;7.40;72.10
13458;DHT22;6801;53.018;11.560;2023-04-10T01:56:28;7.40;72.30
13458;DHT22;6801;53.018;11.560;2023-04-10T01:58:56;7.40;72.20
13458;DHT22;6801;53.018;11.560;2023-04-10T02:01:25;7.30;72.30
13458;DHT22;6801;53.018;11.560;2023-04-10T02:03:52;7.30;72.40
13458;DHT22;6801;53.018;11.560;2023-04-10T02:06:26;7.30;72.40
13458;DHT22;6801;53.018;11.560;2023-04-10T02:09:08;7.30;72.30
13458;DHT22;6801;53.018;11.560;2023-04-10T02:11:41;7.30;72.30
13458;DHT22;6801;53.018;11.560;2023-04-10T02:14:10;7.30;72.30
13458;DHT22;6801;53.018;11.560;2023-04-10T02:16:43;7.30;72.30
13458;DHT22;6801;53.018;11.560;2023-04-10T02:19:12;7.20;72.20
13458;DHT22;6801;53.018;11.560;2023-04-10T02:21:40;7.20;72.30
13458;DHT22;6801;53.018;11.560;2023-04-10T02:24:08;7.20;72.50
13458;DHT22;6801;53.018;11.560;2023-04-10T02:26:45;7.10;72.60
13458;DHT22;6801;53.018;11.560;2023-04-10T02:29:12;7.10;72.40
13458;DHT22;6801;53.018;11.560;2023-04-10T02:31:39;7.10;72.20
13458;DHT22;6801;53.018;11.560;2023-04-10T02:34:08;7.10;72.20
13458;DHT22;6801;53.018;11.560;2023-04-10T02:36:36;7.10;72.30
13458;DHT22;6801;53.018;11.560;2023-04-10T02:39:05;7.00;72.40
13458;DHT22;6801;53.018;11.560;2023-04-10T02:41:34;7.00;72.40
13458;DHT22;6801;53.018;11.560;2023-04-10T02:44:03;7.00;72.40
13458;DHT22;6801;53.018;11.560;2023-04-10T02:46:31;7.00;72.30
13458;DHT22;6801;53.018;11.560;2023-04-10T02:48:59;7.00;72.30
13458;DHT22;6801;53.018;11.560;2023-04-10T02:51:28;6.90;72.20
13458;DHT22;6801;53.018;11.560;2023-04-10T02:53:55;6.90;72.20
13458;DHT22;6801;53.018;11.560;2023-04-10T02:56:28;6.90;72.20
13458;DHT22;6801;53.018;11.560;2023-04-10T02:58:54;6.90;72.40
13458;DHT22;6801;53.018;11.560;2023-04-10T03:01:22;6.90;72.30
13458;DHT22;6801;53.018;11.560;2023-04-10T03:03:50;6.80;72.40
13458;DHT22;6801;53.018;11.560;2023-04-10T03:06:24;6.90;72.50
13458;DHT22;6801;53.018;11.560;2023-04-10T03:08:54;6.80;72.40
13458;DHT22;6801;53.018;11.560;2023-04-10T03:11:21;6.80;72.40
13458;DHT22;6801;53.018;11.560;2023-04-10T03:13:49;6.80;72.40
13458;DHT22;6801;53.018;11.560;2023-04-10T03:16:16;6.80;72.50
13458;DHT22;6801;53.018;11.560;2023-04-10T03:18:43;6.70;72.50
13458;DHT22;6801;53.018;11.560;2023-04-10T03:21:10;6.70;72.60
13458;DHT22;6801;53.018;11.560;2023-04-10T03:23:37;6.70;72.70
13458;DHT22;6801;53.018;11.560;2023-04-10T03:26:06;6.70;72.80
13458;DHT22;6801;53.018;11.560;2023-04-10T03:28:36;6.70;72.80
13458;DHT22;6801;53.018;11.560;2023-04-10T03:31:04;6.60;72.80
13458;DHT22;6801;53.018;11.560;2023-04-10T03:33:34;6.70;72.90
13458;DHT22;6801;53.018;11.560;2023-04-10T03:36:02;6.70;72.90
13458;DHT22;6801;53.018;11.560;2023-04-10T03:38:29;6.70;72.80
13458;DHT22;6801;53.018;11.560;2023-04-10T03:40:56;6.60;72.80
13458;DHT22;6801;53.018;11.560;2023-04-10T03:43:26;6.60;72.90
13458;DHT22;6801;53.018;11.560;2023-04-10T03:45:54;6.60;73.00
13458;DHT22;6801;53.018;11.560;2023-04-10T03:48:22;6.60;73.00
13458;DHT22;6801;53.018;11.560;2023-04-10T03:50:53;6.60;73.00
13458;DHT22;6801;53.018;11.560;2023-04-10T03:53:20;6.50;73.10
13458;DHT22;6801;53.018;11.560;2023-04-10T03:55:47;6.60;73.00
13458;DHT22;6801;53.018;11.560;2023-04-10T03:58:14;6.50;73.00
13458;DHT22;6801;53.018;11.560;2023-04-10T04:00:43;6.50;72.90
13458;DHT22;6801;53.018;11.560;2023-04-10T04:03:18;6.50;73.00
13458;DHT22;6801;53.018;11.560;2023-04-10T04:05:45;6.50;73.00
13458;DHT22;6801;53.018;11.560;2023-04-10T04:08:26;6.50;73.10
13458;DHT22;6801;53.018;11.560;2023-04-10T04:11:03;6.50;73.10
13458;DHT22;6801;53.018;11.560;2023-04-10T04:13:49;6.50;73.00
13458;DHT22;6801;53.018;11.560;2023-04-10T04:16:37;6.40;73.10
13458;DHT22;6801;53.018;11.560;2023-04-10T04:19:26;6.40;73.20
13458;DHT22;6801;53.018;11.560;2023-04-10T04:22:11;6.40;73.30
13458;DHT22;6801;53.018;11.560;2023-04-10T04:24:59;6.50;73.30
13458;DHT22;6801;53.018;11.560;2023-04-10T04:27:46;6.50;73.40
13458;DHT22;6801;53.018;11.560;2023-04-10T04:30:32;6.40;73.40
13458;DHT22;6801;53.018;11.560;2023-04-10T04:33:23;6.50;73.50
13458;DHT22;6801;53.018;11.560;2023-04-10T04:36:22;6.40;73.40
13458;DHT22;6801;53.018;11.560;2023-04-10T04:39:18;6.40;73.50
13458;DHT22;6801;53.018;11.560;2023-04-10T04:42:21;6.40;73.50
13458;DHT22;6801;53.018;11.560;2023-04-10T04:45:21;6.40;73.60
13458;DHT22;6801;53.018;11.560;2023-04-10T04:48:13;6.40;73.70
13458;DHT22;6801;53.018;11.560;2023-04-10T04:51:12;6.40;73.60
13458;DHT22;6801;53.018;11.560;2023-04-10T04:53:46;6.40;73.80
13458;DHT22;6801;53.018;11.560;2023-04-10T04:56:32;6.40;73.90
13458;DHT22;6801;53.018;11.560;2023-04-10T04:59:08;6.40;73.90
13458;DHT22;6801;53.018;11.560;2023-04-10T05:01:54;6.40;74.00
13458;DHT22;6801;53.018;11.560;2023-04-10T05:04:44;6.40;74.00
13458;DHT22;6801;53.018;11.560;2023-04-10T05:07:45;6.30;74.00
13458;DHT22;6801;53.018;11.560;2023-04-10T05:10:35;6.30;74.00
13458;DHT22;6801;53.018;11.560;2023-04-10T05:13:05;6.40;74.10
13458;DHT22;6801;53.018;11.560;2023-04-10T05:15:58;6.30;74.10
13458;DHT22;6801;53.018;11.560;2023-04-10T05:18:40;6.30;74.10
13458;DHT22;6801;53.018;11.560;2023-04-10T05:21:16;6.30;74.10
13458;DHT22;6801;53.018;11.560;2023-04-10T05:24:10;6.30;74.20
13458;DHT22;6801;53.018;11.560;2023-04-10T05:26:43;6.30;74.20
13458;DHT22;6801;53.018;11.560;2023-04-10T05:29:39;6.30;74.20
13458;DHT22;6801;53.018;11.560;2023-04-10T05:32:13;6.30;74.10
13458;DHT22;6801;53.018;11.560;2023-04-10T05:34:57;6.40;74.30
13458;DHT22;6801;53.018;11.560;2023-04-10T05:37:32;6.40;74.20
13458;DHT22;6801;53.018;11.560;2023-04-10T05:40:08;6.40;74.20
13458;DHT22;6801;53.018;11.560;2023-04-10T05:42:50;6.40;74.30
13458;DHT22;6801;53.018;11.560;2023-04-10T05:45:37;6.40;74.40
13458;DHT22;6801;53.018;11.560;2023-04-10T05:48:22;6.40;74.60
13458;DHT22;6801;53.018;11.560;2023-04-10T05:51:20;6.40;74.50
13458;DHT22;6801;53.018;11.560;2023-04-10T05:54:08;6.50;74.40
13458;DHT22;6801;53.018;11.560;2023-04-10T05:57:04;6.40;74.50
13458;DHT22;6801;53.018;11.560;2023-04-10T05:59:45;6.50;74.60
13458;DHT22;6801;53.018;11.560;2023-04-10T06:02:39;6.50;74.60
13458;DHT22;6801;53.018;11.560;2023-04-10T06:05:11;6.60;74.70
13458;DHT22;6801;53.018;11.560;2023-04-10T06:07:40;6.60;74.90
13458;DHT22;6801;53.018;11.560;2023-04-10T06:10:08;6.60;74.90
13458;DHT22;6801;53.018;11.560;2023-04-10T06:12:37;6.70;75.50
13458;DHT22;6801;53.018;11.560;2023-04-10T06:15:08;6.70;75.30
13458;DHT22;6801;53.018;11.560;2023-04-10T06:17:40;6.80;75.60
13458;DHT22;6801;53.018;11.560;2023-04-10T06:20:09;6.80;75.40
13458;DHT22;6801;53.018;11.560;2023-04-10T06:22:36;6.90;75.40
13458;DHT22;6801;53.018;11.560;2023-04-10T06:25:05;6.90;75.40
13458;DHT22;6801;53.018;11.560;2023-04-10T06:27:33;6.90;75.70
13458;DHT22;6801;53.018;11.560;2023-04-10T06:30:02;7.00;75.70
13458;DHT22;6801;53.018;11.560;2023-04-10T06:32:29;7.00;76.00
13458;DHT22;6801;53.018;11.560;2023-04-10T06:34:57;7.00;76.40
13458;DHT22;6801;53.018;11.560;2023-04-10T06:37:28;7.10;76.60
13458;DHT22;6801;53.018;11.560;2023-04-10T06:40:02;7.10;76.60
13458;DHT22;6801;53.018;11.560;2023-04-10T06:42:29;7.20;77.00
13458;DHT22;6801;53.018;11.560;2023-04-10T06:45:02;7.30;77.20
13458;DHT22;6801;53.018;11.560;2023-04-10T06:47:30;7.30;77.70
13458;DHT22;6801;53.018;11.560;2023-04-10T06:49:57;7.40;78.10
13458;DHT22;6801;53.018;11.560;2023-04-10T06:52:24;7.40;78.00
13458;DHT22;6801;53.018;11.560;2023-04-10T06:54:51;7.40;78.00
13458;DHT22;6801;53.018;11.560;2023-04-10T06:57:18;7.50;78.10
13458;DHT22;6801;53.018;11.560;2023-04-10T06:59:45;7.50;78.10
13458;DHT22;6801;53.018;11.560;2023-04-10T07:02:13;7.60;77.90
13458;DHT22;6801;53.018;11.560;2023-04-10T07:04:41;7.60;77.90
13458;DHT22;6801;53.018;11.560;2023-04-10T07:07:08;7.70;78.10
13458;DHT22;6801;53.018;11.560;2023-04-10T07:09:37;7.80;78.10
13458;DHT22;6801;53.018;11.560;2023-04-10T07:12:04;7.90;77.70
13458;DHT22;6801;53.018;11.560;2023-04-10T07:14:31;8.00;77.60
13458;DHT22;6801;53.018;11.560;2023-04-10T07:16:59;8.00;77.50
13458;DHT22;6801;53.018;11.560;2023-04-10T07:19:27;8.10;77.30
13458;DHT22;6801;53.018;11.560;2023-04-10T07:21:54;8.10;77.50
13458;DHT22;6801;53.018;11.560;2023-04-10T07:24:21;8.30;77.60
13458;DHT22;6801;53.018;11.560;2023-04-10T07:26:48;8.30;77.60
13458;DHT22;6801;53.018;11.560;2023-04-10T07:29:15;8.30;77.50
13458;DHT22;6801;53.018;11.560;2023-04-10T07:31:42;8.50;77.40
13458;DHT22;6801;53.018;11.560;2023-04-10T07:34:09;8.50;77.30
13458;DHT22;6801;53.018;11.560;2023-04-10T07:36:37;8.60;77.10
13458;DHT22;6801;53.018;11.560;2023-04-10T07:39:05;8.60;77.10
13458;DHT22;6801;53.018;11.560;2023-04-10T07:41:31;8.80;77.20
13458;DHT22;6801;53.018;11.560;2023-04-10T07:43:59;8.90;77.00
13458;DHT22;6801;53.018;11.560;2023-04-10T07:46:26;9.00;77.30
13458;DHT22;6801;53.018;11.560;2023-04-10T07:48:53;9.00;76.90
13458;DHT22;6801;53.018;11.560;2023-04-10T07:51:21;9.10;76.80
13458;DHT22;6801;53.018;11.560;2023-04-10T07:53:49;9.20;76.60
13458;DHT22;6801;53.018;11.560;2023-04-10T07:56:17;9.30;76.40
13458;DHT22;6801;53.018;11.560;2023-04-10T07:58:46;9.40;76.40
13458;DHT22;6801;53.018;11.560;2023-04-10T08:01:13;9.50;76.20
13458;DHT22;6801;53.018;11.560;2023-04-10T08:03:41;9.60;75.90
13458;DHT22;6801;53.018;11.560;2023-04-10T08:06:09;9.70;76.30
13458;DHT22;6801;53.018;11.560;2023-04-10T08:08:37;9.80;76.30
13458;DHT22;6801;53.018;11.560;2023-04-10T08:11:07;9.90;76.20
13458;DHT22;6801;53.018;11.560;2023-04-10T08:13:34;9.90;76.00
13458;DHT22;6801;53.018;11.560;2023-04-10T08:16:01;10.00;75.90
13458;DHT22;6801;53.018;11.560;2023-04-10T08:18:28;10.10;75.70
13458;DHT22;6801;53.018;11.560;2023-04-10T08:20:55;10.20;75.70
13458;DHT22;6801;53.018;11.560;2023-04-10T08:23:22;10.30;75.30
13458;DHT22;6801;53.018;11.560;2023-04-10T08:25:49;10.40;75.30
13458;DHT22;6801;53.018;11.560;2023-04-10T08:28:18;10.50;75.00
13458;DHT22;6801;53.018;11.560;2023-04-10T08:30:45;10.50;75.00
13458;DHT22;6801;53.018;11.560;2023-04-10T08:33:12;10.60;74.90
13458;DHT22;6801;53.018;11.560;2023-04-10T08:35:40;10.70;74.90
13458;DHT22;6801;53.018;11.560;2023-04-10T08:38:07;10.70;74.90
13458;DHT22;6801;53.018;11.560;2023-04-10T08:40:36;10.90;74.80
13458;DHT22;6801;53.018;11.560;2023-04-10T08:43:03;11.00;74.40
13458;DHT22;6801;53.018;11.560;2023-04-10T08:45:32;11.10;74.20
13458;DHT22;6801;53.018;11.560;2023-04-10T08:48:01;11.30;73.90
13458;DHT22;6801;53.018;11.560;2023-04-10T08:50:32;11.30;73.90
13458;DHT22;6801;53.018;11.560;2023-04-10T08:53:13;11.40;73.80
13458;DHT22;6801;53.018;11.560;2023-04-10T08:55:41;11.50;73.50
13458;DHT22;6801;53.018;11.560;2023-04-10T08:58:10;11.60;73.40
13458;DHT22;6801;53.018;11.560;2023-04-10T09:00:39;11.80;73.00
13458;DHT22;6801;53.018;11.560;2023-04-10T09:03:08;11.90;73.00
13458;DHT22;6801;53.018;11.560;2023-04-10T09:05:38;11.90;73.00
13458;DHT22;6801;53.018;11.560;2023-04-10T09:08:07;12.00;72.90
13458;DHT22;6801;53.018;11.560;2023-04-10T09:10:35;12.00;72.90
13458;DHT22;6801;53.018;11.560;2023-04-10T09:13:02;12.20;72.80
13458;DHT22;6801;53.018;11.560;2023-04-10T09:15:29;12.30;72.20
13458;DHT22;6801;53.018;11.560;2023-04-10T09:17:59;12.40;72.20
13458;DHT22;6801;53.018;11.560;2023-04-10T09:20:31;12.50;72.10
13458;DHT22;6801;53.018;11.560;2023-04-10T09:22:58;12.60;71.80
13458;DHT22;6801;53.018;11.560;2023-04-10T09:25:31;12.60;71.60
13458;DHT22;6801;53.018;11.560;2023-04-10T09:27:59;12.90;70.20
13458;DHT22;6801;53.018;11.560;2023-04-10T09:30:32;13.00;69.70
13458;DHT22;6801;53.018;11.560;2023-04-10T09:33:01;13.20;68.90
13458;DHT22;6801;53.018;11.560;2023-04-10T09:35:35;13.20;68.60
13458;DHT22;6801;53.018;11.560;2023-04-10T09:38:14;13.40;67.00
13458;DHT22;6801;53.018;11.560;2023-04-10T09:40:42;13.50;66.90
13458;DHT22;6801;53.018;11.560;2023-04-10T09:43:20;13.50;66.90
13458;DHT22;6801;53.018;11.560;2023-04-10T09:45:49;13.70;65.70
13458;DHT22;6801;53.018;11.560;2023-04-10T09:48:18;13.80;65.60
13458;DHT22;6801;53.018;11.560;2023-04-10T09:50:45;13.90;64.60
13458;DHT22;6801;53.018;11.560;2023-04-10T09:53:14;14.00;64.70
13458;DHT22;6801;53.018;11.560;2023-04-10T09:55:42;14.10;64.00
13458;DHT22;6801;53.018;11.560;2023-04-10T09:58:10;14.20;63.70
13458;DHT22;6801;53.018;11.560;2023-04-10T10:00:41;14.30;63.80
13458;DHT22;6801;53.018;11.560;2023-04-10T10:03:10;14.30;62.80
13458;DHT22;6801;53.018;11.560;2023-04-10T10:05:40;14.30;63.30
13458;DHT22;6801;53.018;11.560;2023-04-10T10:08:09;14.40;62.70
13458;DHT22;6801;53.018;11.560;2023-04-10T10:10:39;14.50;63.70
13458;DHT22;6801;53.018;11.560;2023-04-10T10:13:09;14.70;62.40
13458;DHT22;6801;53.018;11.560;2023-04-10T10:15:42;14.80;61.60
13458;DHT22;6801;53.018;11.560;2023-04-10T10:18:18;14.90;61.60
13458;DHT22;6801;53.018;11.560;2023-04-10T10:20:49;14.90;61.30
13458;DHT22;6801;53.018;11.560;2023-04-10T10:23:17;15.00;61.40
13458;DHT22;6801;53.018;11.560;2023-04-10T10:25:45;15.00;60.40
13458;DHT22;6801;53.018;11.560;2023-04-10T10:28:15;15.10;60.50
13458;DHT22;6801;53.018;11.560;2023-04-10T10:30:43;15.30;59.30
13458;DHT22;6801;53.018;11.560;2023-04-10T10:33:13;15.40;60.10
13458;DHT22;6801;53.018;11.560;2023-04-10T10:35:40;15.50;58.50
13458;DHT22;6801;53.018;11.560;2023-04-10T10:38:09;15.60;57.20
13458;DHT22;6801;53.018;11.560;2023-04-10T10:40:41;15.60;57.60
13458;DHT22;6801;53.018;11.560;2023-04-10T10:43:15;15.70;57.00
13458;DHT22;6801;53.018;11.560;2023-04-10T10:45:51;15.70;57.50
13458;DHT22;6801;53.018;11.560;2023-04-10T10:48:20;15.70;58.10
13458;DHT22;6801;53.018;11.560;2023-04-10T10:50:52;15.80;58.50
13458;DHT22;6801;53.018;11.560;2023-04-10T10:53:35;16.00;57.60
13458;DHT22;6801;53.018;11.560;2023-04-10T10:56:34;16.00;55.90
13458;DHT22;6801;53.018;11.560;2023-04-10T10:59:04;16.00;55.50
13458;DHT22;6801;53.018;11.560;2023-04-10T11:01:31;16.10;56.10
13458;DHT22;6801;53.018;11.560;2023-04-10T11:03:58;16.20;55.20
13458;DHT22;6801;53.018;11.560;2023-04-10T11:06:48;16.30;54.10
13458;DHT22;6801;53.018;11.560;2023-04-10T11:09:46;16.20;54.20
13458;DHT22;6801;53.018;11.560;2023-04-10T11:12:14;16.30;54.60
13458;DHT22;6801;53.018;11.560;2023-04-10T11:14:42;16.50;54.20
13458;DHT22;6801;53.018;11.560;2023-04-10T11:17:10;16.50;54.50
13458;DHT22;6801;53.018;11.560;2023-04-10T11:19:56;16.50;54.20
13458;DHT22;6801;53.018;11.560;2023-04-10T11:22:24;16.60;52.40
13458;DHT22;6801;53.018;11.560;2023-04-10T11:24:58;16.70;52.50
13458;DHT22;6801;53.018;11.560;2023-04-10T11:27:50;16.70;51.60
13458;DHT22;6801;53.018;11.560;2023-04-10T11:30:31;16.90;51.50
13458;DHT22;6801;53.018;11.560;2023-04-10T11:32:59;16.90;50.90
13458;DHT22;6801;53.018;11.560;2023-04-10T11:35:27;16.90;51.00
13458;DHT22;6801;53.018;11.560;2023-04-10T11:38:14;16.90;50.20
13458;DHT22;6801;53.018;11.560;2023-04-10T11:41:00;17.00;49.50
13458;DHT22;6801;53.018;11.560;2023-04-10T11:43:29;17.10;49.70
13458;DHT22;6801;53.018;11.560;2023-04-10T11:46:01;17.10;51.10
13458;DHT22;6801;53.018;11.560;2023-04-10T11:48:28;17.10;49.50
13458;DHT22;6801;53.018;11.560;2023-04-10T11:50:55;17.20;49.50
13458;DHT22;6801;53.018;11.560;2023-04-10T11:53:24;17.30;48.60
13458;DHT22;6801;53.018;11.560;2023-04-10T11:55:51;17.20;48.60
13458;DHT22;6801;53.018;11.560;2023-04-10T11:58:27;17.40;49.00
13458;DHT22;6801;53.018;11.560;2023-04-10T12:00:56;17.40;48.10
13458;DHT22;6801;53.018;11.560;2023-04-10T12:03:36;17.40;47.40
13458;DHT22;6801;53.018;11.560;2023-04-10T12:06:06;17.30;47.40
13458;DHT22;6801;53.018;11.560;2023-04-10T12:08:34;17.30;48.20
13458;DHT22;6801;53.018;11.560;2023-04-10T12:11:02;17.40;48.80
13458;DHT22;6801;53.018;11.560;2023-04-10T12:13:30;17.50;48.10
13458;DHT22;6801;53.018;11.560;2023-04-10T12:15:58;17.50;47.60
13458;DHT22;6801;53.018;11.560;2023-04-10T12:18:26;17.50;48.40
13458;DHT22;6801;53.018;11.560;2023-04-10T12:20:54;17.50;47.60
13458;DHT22;6801;53.018;11.560;2023-04-10T12:23:22;17.50;46.70
13458;DHT22;6801;53.018;11.560;2023-04-10T12:25:49;17.50;46.70
13458;DHT22;6801;53.018;11.560;2023-04-10T12:28:17;17.60;45.70
13458;DHT22;6801;53.018;11.560;2023-04-10T12:30:50;17.60;45.50
13458;DHT22;6801;53.018;11.560;2023-04-10T12:33:22;17.60;45.30
13458;DHT22;6801;53.018;11.560;2023-04-10T12:35:50;17.80;46.50
13458;DHT22;6801;53.018;11.560;2023-04-10T12:38:34;17.80;47.10
13458;DHT22;6801;53.018;11.560;2023-04-10T12:41:01;17.80;46.60
13458;DHT22;6801;53.018;11.560;2023-04-10T12:43:32;17.80;47.30
13458;DHT22;6801;53.018;11.560;2023-04-10T12:46:01;17.90;47.10
13458;DHT22;6801;53.018;11.560;2023-04-10T12:48:28;18.00;47.50
13458;DHT22;6801;53.018;11.560;2023-04-10T12:50:55;18.10;46.60
13458;DHT22;6801;53.018;11.560;2023-04-10T12:53:23;18.20;46.00
13458;DHT22;6801;53.018;11.560;2023-04-10T12:56:01;18.30;46.20
13458;DHT22;6801;53.018;11.560;2023-04-10T12:58:30;18.30;45.20
13458;DHT22;6801;53.018;11.560;2023-04-10T13:01:00;18.30;46.30
13458;DHT22;6801;53.018;11.560;2023-04-10T13:03:29;18.40;46.70
13458;DHT22;6801;53.018;11.560;2023-04-10T13:05:57;18.40;46.50
13458;DHT22;6801;53.018;11.560;2023-04-10T13:08:24;18.40;46.80
13458;DHT22;6801;53.018;11.560;2023-04-10T13:10:51;18.40;46.40
13458;DHT22;6801;53.018;11.560;2023-04-10T13:13:19;18.50;46.70
13458;DHT22;6801;53.018;11.560;2023-04-10T13:15:45;18.50;45.80
13458;DHT22;6801;53.018;11.560;2023-04-10T13:18:13;18.50;46.60
13458;DHT22;6801;53.018;11.560;2023-04-10T13:20:41;18.60;45.00
13458;DHT22;6801;53.018;11.560;2023-04-10T13:23:08;18.70;45.10
13458;DHT22;6801;53.018;11.560;2023-04-10T13:25:37;18.60;45.60
13458;DHT22;6801;53.018;11.560;2023-04-10T13:28:05;18.60;45.30
13458;DHT22;6801;53.018;11.560;2023-04-10T13:30:37;18.60;46.10
13458;DHT22;6801;53.018;11.560;2023-04-10T13:33:04;18.70;45.30
13458;DHT22;6801;53.018;11.560;2023-04-10T13:35:31;18.70;45.30
13458;DHT22;6801;53.018;11.560;2023-04-10T13:38:00;18.90;46.10
13458;DHT22;6801;53.018;11.560;2023-04-10T13:40:27;18.80;46.30
13458;DHT22;6801;53.018;11.560;2023-04-10T13:42:54;18.80;47.30
13458;DHT22;6801;53.018;11.560;2023-04-10T13:45:21;18.90;46.80
13458;DHT22;6801;53.018;11.560;2023-04-10T13:47:48;19.00;45.90
13458;DHT22;6801;53.018;11.560;2023-04-10T13:50:15;19.00;46.30
13458;DHT22;6801;53.018;11.560;2023-04-10T13:52:42;19.00;47.20
13458;DHT22;6801;53.018;11.560;2023-04-10T13:55:10;19.00;45.90
13458;DHT22;6801;53.018;11.560;2023-04-10T13:57:37;19.00;45.70
13458;DHT22;6801;53.018;11.560;2023-04-10T14:00:06;19.00;45.60
13458;DHT22;6801;53.018;11.560;2023-04-10T14:02:41;19.00;46.50
13458;DHT22;6801;53.018;11.560;2023-04-10T14:05:09;19.00;46.00
13458;DHT22;6801;53.018;11.560;2023-04-10T14:07:36;19.00;46.50
13458;DHT22;6801;53.018;11.560;2023-04-10T14:10:03;19.10;47.20
13458;DHT22;6801;53.018;11.560;2023-04-10T14:12:32;19.10;45.90
13458;DHT22;6801;53.018;11.560;2023-04-10T14:14:58;19.00;46.00
13458;DHT22;6801;53.018;11.560;2023-04-10T14:17:25;19.00;46.30
13458;DHT22;6801;53.018;11.560;2023-04-10T14:19:53;19.00;46.50
13458;DHT22;6801;53.018;11.560;2023-04-10T14:22:20;19.20;46.90
13458;DHT22;6801;53.018;11.560;2023-04-10T14:24:47;19.10;45.70
13458;DHT22;6801;53.018;11.560;2023-04-10T14:27:14;19.20;45.80
13458;DHT22;6801;53.018;11.560;2023-04-10T14:29:43;19.10;46.00
13458;DHT22;6801;53.018;11.560;2023-04-10T14:32:10;19.10;45.10
13458;DHT22;6801;53.018;11.560;2023-04-10T14:34:36;19.10;45.70
13458;DHT22;6801;53.018;11.560;2023-04-10T14:37:03;19.20;45.60
13458;DHT22;6801;53.018;11.560;2023-04-10T14:39:31;19.10;46.50
13458;DHT22;6801;53.018;11.560;2023-04-10T14:41:58;19.10;45.40
13458;DHT22;6801;53.018;11.560;2023-04-10T14:44:27;19.10;45.90
13458;DHT22;6801;53.018;11.560;2023-04-10T14:46:56;19.20;46.50
13458;DHT22;6801;53.018;11.560;2023-04-10T14:49:23;19.20;44.90
13458;DHT22;6801;53.018;11.560;2023-04-10T14:51:50;19.10;45.80
13458;DHT22;6801;53.018;11.560;2023-04-10T14:54:17;19.10;45.70
13458;DHT22;6801;53.018;11.560;2023-04-10T14:56:46;19.10;44.80
13458;DHT22;6801;53.018;11.560;2023-04-10T14:59:13;19.10;45.10
13458;DHT22;6801;53.018;11.560;2023-04-10T15:01:40;19.00;45.10
13458;DHT22;6801;53.018;11.560;2023-04-10T15:04:09;19.00;45.00
13458;DHT22;6801;53.018;11.560;2023-04-10T15:06:37;19.00;44.60
13458;DHT22;6801;53.018;11.560;2023-04-10T15:09:04;19.00;45.80
13458;DHT22;6801;53.018;11.560;2023-04-10T15:11:34;18.90;45.80
13458;DHT22;6801;53.018;11.560;2023-04-10T15:14:01;18.90;44.50
13458;DHT22;6801;53.018;11.560;2023-04-10T15:16:30;18.90;44.20
13458;DHT22;6801;53.018;11.560;2023-04-10T15:18:57;18.90;44.00
13458;DHT22;6801;53.018;11.560;2023-04-10T15:21:25;18.80;44.90
13458;DHT22;6801;53.018;11.560;2023-04-10T15:23:52;18.70;45.00
13458;DHT22;6801;53.018;11.560;2023-04-10T15:26:19;18.70;45.10
13458;DHT22;6801;53.018;11.560;2023-04-10T15:28:46;18.60;45.10
13458;DHT22;6801;53.018;11.560;2023-04-10T15:31:14;18.60;44.80
13458;DHT22;6801;53.018;11.560;2023-04-10T15:33:41;18.50;45.10
13458;DHT22;6801;53.018;11.560;2023-04-10T15:36:08;18.50;45.00
13458;DHT22;6801;53.018;11.560;2023-04-10T15:38:37;18.50;45.30
13458;DHT22;6801;53.018;11.560;2023-04-10T15:41:08;18.50;45.50
13458;DHT22;6801;53.018;11.560;2023-04-10T15:43:35;18.50;45.20
13458;DHT22;6801;53.018;11.560;2023-04-10T15:46:03;18.50;45.40
13458;DHT22;6801;53.018;11.560;2023-04-10T15:48:30;18.50;44.70
13458;DHT22;6801;53.018;11.560;2023-04-10T15:50:58;18.50;44.90
13458;DHT22;6801;53.018;11.560;2023-04-10T15:53:25;18.50;45.60
13458;DHT22;6801;53.018;11.560;2023-04-10T15:55:53;18.40;44.70
13458;DHT22;6801;53.018;11.560;2023-04-10T15:58:20;18.40;44.90
13458;DHT22;6801;53.018;11.560;2023-04-10T16:00:48;18.40;45.20
13458;DHT22;6801;53.018;11.560;2023-04-10T16:03:15;18.20;45.20